Country
Station

 

Weather  for  Pusan/Kimhae International Airport  -  Korea (Republic of)    Korea (Republic of)

  
12 °C (54 °F)
    
 
 

Current METAR for Pusan/Kimhae International Airport is :

RKPK 181400Z 36006KT 9999 FEW040 12/08 Q1019 NOSIG

 

This is a report for Pusan/Kimhae International Airport - Korea (Republic of).
 
The report was made 58 minutes ago, at 14:00 UTC .
The wind was blowing at a speed of 3.1 meters per second (6.9 miles per hour) from north (360°).
 
The temperature was 12 °C (54 °F), with a dew-point at 8 °C (46 °F).
The atmospheric pressure was 1019 hPa (30.09 inHg).
The relative humidity was 76.5%.
 
There were a few clouds at a height of 1219 meters (4000 feet).
 
The overall visibility was greater than 10 kilometers (6.2 miles).
 

 
 
 
 

Country :   A   B   C   D   E   F   G   H   I   J   K   L   M   N   O   P   Q   R   S   T   U   V   W   Y   Z

 

Site Info  |  Disclaimer  |  Credits  |  Privacy
Contact us  |  Add to favorites
© 2013-2018 METARs - All rights reserved